createdAt,value
2023-02-18T00:00:31.759Z,0.00
2023-02-18T00:01:31.742Z,0.00
2023-02-18T00:02:31.749Z,0.00
2023-02-18T00:03:31.802Z,0.00
2023-02-18T00:04:31.702Z,0.00
2023-02-18T00:05:31.673Z,0.00
2023-02-18T00:06:31.696Z,0.00
2023-02-18T00:07:31.628Z,0.00
2023-02-18T00:08:31.632Z,0.00
2023-02-18T00:09:31.600Z,0.00
2023-02-18T00:10:31.628Z,0.00
2023-02-18T00:11:31.640Z,0.00
2023-02-18T00:12:31.859Z,0.00
2023-02-18T00:13:31.541Z,0.00
2023-02-18T00:14:31.531Z,0.00
2023-02-18T00:15:31.553Z,0.00
2023-02-18T00:16:31.521Z,0.00
2023-02-18T00:17:31.529Z,0.00
2023-02-18T00:18:31.480Z,0.00
2023-02-18T00:19:31.449Z,0.00
2023-02-18T00:20:31.459Z,0.00
2023-02-18T00:21:31.411Z,0.00
2023-02-18T00:22:31.450Z,0.00
2023-02-18T00:23:31.391Z,0.00
2023-02-18T00:24:31.403Z,0.00
2023-02-18T00:25:31.384Z,0.00
2023-02-18T00:26:31.409Z,0.00
2023-02-18T00:27:31.344Z,0.00
2023-02-18T00:28:31.356Z,0.00
2023-02-18T00:29:31.310Z,0.00
2023-02-18T00:30:31.305Z,0.00
2023-02-18T00:31:31.445Z,0.00
2023-02-18T00:32:31.277Z,0.00
2023-02-18T00:33:31.249Z,0.00
2023-02-18T00:34:31.263Z,0.00
2023-02-18T00:35:31.275Z,0.00
2023-02-18T00:36:31.236Z,0.00
2023-02-18T00:37:31.757Z,0.00
2023-02-18T00:38:31.186Z,0.00
2023-02-18T00:39:31.166Z,0.00
2023-02-18T00:40:31.155Z,0.00
2023-02-18T00:41:31.140Z,0.00
2023-02-18T00:42:31.124Z,0.00
2023-02-18T00:43:31.091Z,0.00
2023-02-18T00:44:31.094Z,0.00
2023-02-18T00:45:31.086Z,0.00
2023-02-18T00:46:31.139Z,0.00
2023-02-18T00:47:31.091Z,0.00
2023-02-18T00:48:31.050Z,0.00
2023-02-18T00:49:31.008Z,0.00
2023-02-18T00:50:30.995Z,0.00
2023-02-18T00:51:31.012Z,0.00
2023-02-18T00:52:30.978Z,0.00
2023-02-18T00:53:31.041Z,0.00
2023-02-18T00:54:30.943Z,0.00
2023-02-18T00:55:30.946Z,0.00
2023-02-18T00:56:30.931Z,0.00
2023-02-18T00:57:30.912Z,0.00
2023-02-18T00:58:30.884Z,0.00
2023-02-18T00:59:30.862Z,0.00
2023-02-18T01:00:30.893Z,0.00
2023-02-18T01:01:30.841Z,0.00
2023-02-18T01:02:30.826Z,0.00
2023-02-18T01:03:30.856Z,0.00
2023-02-18T01:04:30.799Z,0.00
2023-02-18T01:05:30.782Z,0.00
2023-02-18T01:06:30.813Z,0.00
2023-02-18T01:07:30.761Z,0.00
2023-02-18T01:08:30.736Z,0.00
2023-02-18T01:09:30.747Z,0.00
2023-02-18T01:10:30.738Z,0.00
2023-02-18T01:11:30.710Z,0.00
2023-02-18T01:12:30.688Z,0.00
2023-02-18T01:13:30.679Z,0.00
2023-02-18T01:14:30.679Z,0.00
2023-02-18T01:15:30.644Z,0.00
2023-02-18T01:16:30.652Z,0.00
2023-02-18T01:17:30.602Z,0.00
2023-02-18T01:18:30.602Z,0.00
2023-02-18T01:19:30.586Z,0.00
2023-02-18T01:20:30.573Z,0.00
2023-02-18T01:21:30.569Z,0.00
2023-02-18T01:22:30.547Z,0.00
2023-02-18T01:23:30.503Z,0.00
2023-02-18T01:24:30.514Z,0.00
2023-02-18T01:25:30.497Z,0.00
2023-02-18T01:26:30.498Z,0.00
2023-02-18T01:27:30.490Z,0.00
2023-02-18T01:28:30.463Z,0.00
2023-02-18T01:29:30.426Z,0.00
2023-02-18T01:30:30.488Z,0.00
2023-02-18T01:31:30.478Z,0.00
2023-02-18T01:32:30.412Z,0.00
2023-02-18T01:33:30.382Z,0.00
2023-02-18T01:34:30.372Z,0.00
2023-02-18T01:35:30.361Z,0.00
2023-02-18T01:36:30.363Z,0.00
2023-02-18T01:37:30.382Z,0.00
2023-02-18T01:38:30.351Z,0.00
2023-02-18T01:39:30.277Z,0.00
2023-02-18T01:40:30.301Z,0.00
2023-02-18T01:41:30.242Z,0.00
2023-02-18T01:42:30.457Z,0.00
2023-02-18T01:43:30.240Z,0.00
2023-02-18T01:44:30.215Z,0.00
2023-02-18T01:45:30.186Z,0.00
2023-02-18T01:46:30.270Z,0.00
2023-02-18T01:47:30.179Z,0.00
2023-02-18T01:48:30.144Z,0.00
2023-02-18T01:49:30.164Z,0.00
2023-02-18T01:50:30.115Z,0.00
2023-02-18T01:51:30.126Z,0.00
2023-02-18T01:52:30.103Z,0.00
2023-02-18T01:53:30.097Z,0.00
2023-02-18T01:54:30.112Z,0.00
2023-02-18T01:55:30.072Z,0.00
2023-02-18T01:56:30.060Z,0.00
2023-02-18T01:57:30.052Z,0.00
2023-02-18T01:58:30.098Z,0.00
2023-02-18T01:59:30.073Z,0.00
2023-02-18T02:00:30.041Z,0.00
2023-02-18T02:01:30.008Z,0.00
2023-02-18T02:02:29.949Z,0.00
2023-02-18T02:03:29.951Z,0.00
2023-02-18T02:04:29.930Z,0.00
2023-02-18T02:05:29.888Z,0.00
2023-02-18T02:06:29.900Z,0.00
2023-02-18T02:07:29.952Z,0.00
2023-02-18T02:08:29.888Z,0.00
2023-02-18T02:09:29.856Z,0.00
2023-02-18T02:10:29.920Z,0.00
2023-02-18T02:11:29.858Z,0.00
2023-02-18T02:12:29.840Z,0.00
2023-02-18T02:13:29.819Z,0.00
2023-02-18T02:14:29.789Z,0.00
2023-02-18T02:15:29.797Z,0.00
2023-02-18T02:16:29.775Z,0.00
2023-02-18T02:17:29.753Z,0.00
2023-02-18T02:18:29.717Z,0.00
2023-02-18T02:19:29.721Z,0.00
2023-02-18T02:20:29.685Z,0.00
2023-02-18T02:21:29.659Z,0.00
2023-02-18T02:22:29.648Z,0.00
2023-02-18T02:23:29.639Z,0.00
2023-02-18T02:24:29.726Z,0.00
2023-02-18T02:25:29.601Z,0.00
2023-02-18T02:26:29.609Z,0.00
2023-02-18T02:27:29.604Z,0.00
2023-02-18T02:28:29.559Z,0.00
2023-02-18T02:29:29.564Z,0.00
2023-02-18T02:30:29.572Z,0.00
2023-02-18T02:31:29.554Z,0.00
2023-02-18T02:32:29.531Z,0.00
2023-02-18T02:33:29.598Z,0.00
2023-02-18T02:34:29.488Z,0.00
2023-02-18T02:35:29.457Z,0.00
2023-02-18T02:36:29.484Z,0.00
2023-02-18T02:37:29.454Z,0.00
2023-02-18T02:38:29.420Z,0.00
2023-02-18T02:39:29.410Z,0.00
2023-02-18T02:40:29.410Z,0.00
2023-02-18T02:41:29.385Z,0.00
2023-02-18T02:42:29.376Z,0.00
2023-02-18T02:43:29.351Z,0.00
2023-02-18T02:44:29.332Z,0.00
2023-02-18T02:45:29.377Z,0.00
2023-02-18T02:46:29.317Z,0.00
2023-02-18T02:47:29.305Z,0.00
2023-02-18T02:48:29.264Z,0.00
2023-02-18T02:49:29.278Z,0.00
2023-02-18T02:50:29.267Z,0.00
2023-02-18T02:51:29.246Z,0.00
2023-02-18T02:52:29.260Z,0.00
2023-02-18T02:53:29.230Z,0.00
2023-02-18T02:54:29.272Z,0.00
2023-02-18T02:55:29.303Z,0.00
2023-02-18T02:56:29.219Z,0.00
2023-02-18T02:57:29.148Z,0.00
2023-02-18T02:58:29.156Z,0.00
2023-02-18T02:59:29.130Z,0.00
2023-02-18T03:00:29.127Z,0.00
2023-02-18T03:01:29.091Z,0.00
2023-02-18T03:02:29.071Z,0.00
2023-02-18T03:03:29.075Z,0.00
2023-02-18T03:04:29.081Z,0.00
2023-02-18T03:05:29.022Z,0.00
2023-02-18T03:06:29.011Z,0.00
2023-02-18T03:07:29.012Z,0.00
2023-02-18T03:08:28.985Z,0.00
2023-02-18T03:09:29.009Z,0.00
2023-02-18T03:10:28.956Z,0.00
2023-02-18T03:11:28.935Z,0.00
2023-02-18T03:12:28.948Z,0.00
2023-02-18T03:13:28.920Z,0.00
2023-02-18T03:14:28.895Z,0.00
2023-02-18T03:15:28.914Z,0.00
2023-02-18T03:16:28.923Z,0.00
2023-02-18T03:17:28.854Z,0.00
2023-02-18T03:18:28.846Z,0.00
2023-02-18T03:19:28.868Z,0.00
2023-02-18T03:20:28.853Z,0.00
2023-02-18T03:21:28.851Z,0.00
2023-02-18T03:22:28.788Z,0.00
2023-02-18T03:23:28.772Z,0.00
2023-02-18T03:24:28.767Z,0.00
2023-02-18T03:25:28.777Z,0.00
2023-02-18T03:26:28.752Z,0.00
2023-02-18T03:27:28.715Z,0.00
2023-02-18T03:28:28.728Z,0.00
2023-02-18T03:29:28.698Z,0.00
2023-02-18T03:30:28.696Z,0.00
2023-02-18T03:31:28.710Z,0.00
2023-02-18T03:32:28.659Z,0.00
2023-02-18T03:33:28.904Z,0.00
2023-02-18T03:34:28.678Z,0.00
2023-02-18T03:35:28.615Z,0.00
2023-02-18T03:36:28.590Z,0.00
2023-02-18T03:37:28.566Z,0.00
2023-02-18T03:38:28.557Z,0.00
2023-02-18T03:39:28.576Z,0.00
2023-02-18T03:40:28.535Z,0.00
2023-02-18T03:41:28.546Z,0.00
2023-02-18T03:42:28.521Z,0.00
2023-02-18T03:43:28.500Z,0.00
2023-02-18T03:44:28.494Z,0.00
2023-02-18T03:45:28.480Z,0.00
2023-02-18T03:46:28.454Z,0.00
2023-02-18T03:47:28.432Z,0.00
2023-02-18T03:48:28.421Z,0.00
2023-02-18T03:49:28.409Z,0.00
2023-02-18T03:50:28.406Z,0.00
2023-02-18T03:51:28.757Z,0.00
2023-02-18T03:52:28.357Z,0.00
2023-02-18T03:53:28.344Z,0.00
2023-02-18T03:54:28.356Z,0.00
2023-02-18T03:55:28.333Z,0.00
2023-02-18T03:56:28.349Z,0.00
2023-02-18T03:57:28.284Z,0.00
2023-02-18T03:58:28.278Z,0.00
2023-02-18T03:59:28.274Z,0.00
2023-02-18T04:00:28.289Z,0.00
2023-02-18T04:01:28.378Z,0.00
2023-02-18T04:02:28.268Z,0.00
2023-02-18T04:03:28.195Z,0.00
2023-02-18T04:04:28.207Z,0.00
2023-02-18T04:05:28.181Z,0.00
2023-02-18T04:06:28.169Z,0.00
2023-02-18T04:07:28.180Z,0.00
2023-02-18T04:08:28.127Z,0.00
2023-02-18T04:09:28.129Z,0.00
2023-02-18T04:10:28.110Z,0.00
2023-02-18T04:11:28.093Z,0.00
2023-02-18T04:12:28.078Z,0.00
2023-02-18T04:13:28.094Z,0.00
2023-02-18T04:14:28.050Z,0.00
2023-02-18T04:15:28.064Z,0.00
2023-02-18T04:16:28.042Z,0.00
2023-02-18T04:17:28.035Z,0.00
2023-02-18T04:18:28.026Z,0.00
2023-02-18T04:19:28.032Z,0.00
2023-02-18T04:20:27.957Z,0.00
2023-02-18T04:21:27.946Z,0.00
2023-02-18T04:22:28.036Z,0.00
2023-02-18T04:23:27.930Z,0.00
2023-02-18T04:24:27.915Z,0.00
2023-02-18T04:25:27.950Z,0.00
2023-02-18T04:26:27.869Z,0.00
2023-02-18T04:27:27.871Z,0.00
2023-02-18T04:28:27.849Z,0.00
2023-02-18T04:29:27.844Z,0.00
2023-02-18T04:30:27.895Z,0.00
2023-02-18T04:31:27.925Z,0.00
2023-02-18T04:32:27.788Z,0.00
2023-02-18T04:33:27.767Z,0.00
2023-02-18T04:34:27.773Z,0.00
2023-02-18T04:35:27.750Z,0.00
2023-02-18T04:36:27.773Z,0.00
2023-02-18T04:37:27.713Z,0.00
2023-02-18T04:38:27.721Z,0.00
2023-02-18T04:39:27.717Z,0.00
2023-02-18T04:40:27.707Z,0.00
2023-02-18T04:41:27.656Z,0.00
2023-02-18T04:42:27.652Z,0.00
2023-02-18T04:43:27.655Z,0.00
2023-02-18T04:44:27.620Z,0.00
2023-02-18T04:45:27.648Z,0.00
2023-02-18T04:46:27.661Z,0.00
2023-02-18T04:47:27.577Z,0.00
2023-02-18T04:48:27.586Z,0.00
2023-02-18T04:49:27.575Z,0.00
2023-02-18T04:50:27.543Z,0.00
2023-02-18T04:51:27.562Z,0.00
2023-02-18T04:52:27.517Z,0.00
2023-02-18T04:53:27.511Z,0.00
2023-02-18T04:54:27.503Z,0.00
2023-02-18T04:55:27.499Z,0.00
2023-02-18T04:56:27.470Z,0.00
2023-02-18T04:57:27.473Z,0.00
2023-02-18T04:58:27.459Z,0.00
2023-02-18T04:59:27.431Z,0.00
2023-02-18T05:00:27.401Z,0.00
2023-02-18T05:01:27.446Z,0.00
2023-02-18T05:02:27.376Z,0.00
2023-02-18T05:03:27.355Z,0.00
2023-02-18T05:04:27.387Z,0.00
2023-02-18T05:05:27.331Z,0.00
2023-02-18T05:06:28.012Z,0.00
2023-02-18T05:07:27.333Z,0.00
2023-02-18T05:08:27.287Z,0.00
2023-02-18T05:09:27.293Z,0.00
2023-02-18T05:10:27.264Z,0.00
2023-02-18T05:11:27.251Z,0.00
2023-02-18T05:12:27.233Z,0.00
2023-02-18T05:13:27.249Z,0.00
2023-02-18T05:14:27.239Z,0.00
2023-02-18T05:15:27.217Z,0.00
2023-02-18T05:16:27.214Z,0.00
2023-02-18T05:17:27.201Z,0.00
2023-02-18T05:18:27.170Z,0.00
2023-02-18T05:19:27.151Z,0.00
2023-02-18T05:20:27.150Z,0.00
2023-02-18T05:21:27.103Z,0.00
2023-02-18T05:22:27.113Z,0.00
2023-02-18T05:23:27.097Z,0.00
2023-02-18T05:24:27.050Z,0.00
2023-02-18T05:25:27.068Z,0.00
2023-02-18T05:26:27.035Z,0.00
2023-02-18T05:27:27.037Z,0.00
2023-02-18T05:28:27.002Z,0.00
2023-02-18T05:29:27.010Z,0.00
2023-02-18T05:30:27.014Z,0.00
2023-02-18T05:31:27.041Z,0.00
2023-02-18T05:32:26.945Z,0.00
2023-02-18T05:33:26.976Z,0.00
2023-02-18T05:34:26.946Z,0.00
2023-02-18T05:35:26.907Z,0.00
2023-02-18T05:36:27.136Z,0.00
2023-02-18T05:37:26.874Z,0.00
2023-02-18T05:38:26.856Z,0.00
2023-02-18T05:39:26.871Z,0.00
2023-02-18T05:40:26.827Z,0.00
2023-02-18T05:41:26.818Z,0.00
2023-02-18T05:42:26.817Z,0.00
2023-02-18T05:43:26.796Z,0.00
2023-02-18T05:44:26.802Z,0.00
2023-02-18T05:45:26.766Z,0.00
2023-02-18T05:46:26.804Z,0.00
2023-02-18T05:47:26.809Z,0.00
2023-02-18T05:48:26.720Z,0.00
2023-02-18T05:49:26.747Z,0.00
2023-02-18T05:50:26.738Z,0.00
2023-02-18T05:51:26.682Z,0.00
2023-02-18T05:52:26.657Z,0.00
2023-02-18T05:53:26.680Z,0.00
2023-02-18T05:54:26.668Z,0.00
2023-02-18T05:55:26.640Z,0.00
2023-02-18T05:56:26.618Z,0.00
2023-02-18T05:57:26.611Z,0.00
2023-02-18T05:58:26.657Z,0.00
2023-02-18T05:59:26.594Z,0.00
2023-02-18T06:00:26.559Z,0.00
2023-02-18T06:01:26.552Z,0.00
2023-02-18T06:02:26.570Z,0.00
2023-02-18T06:03:26.510Z,0.00
2023-02-18T06:04:26.524Z,0.00
2023-02-18T06:05:26.610Z,0.00
2023-02-18T06:06:26.471Z,0.00
2023-02-18T06:07:26.481Z,0.00
2023-02-18T06:08:26.449Z,0.00
2023-02-18T06:09:26.456Z,0.00
2023-02-18T06:10:26.403Z,0.00
2023-02-18T06:11:26.402Z,0.00
2023-02-18T06:12:26.407Z,0.00
2023-02-18T06:13:26.403Z,0.00
2023-02-18T06:14:26.346Z,0.00
2023-02-18T06:15:26.391Z,0.00
2023-02-18T06:16:26.367Z,0.00
2023-02-18T06:17:26.311Z,0.00
2023-02-18T06:18:26.337Z,0.00
2023-02-18T06:19:26.298Z,0.00
2023-02-18T06:20:26.300Z,0.00
2023-02-18T06:21:26.274Z,0.00
2023-02-18T06:22:26.257Z,0.00
2023-02-18T06:23:26.302Z,0.00
2023-02-18T06:24:26.202Z,0.00
2023-02-18T06:25:26.197Z,0.00
2023-02-18T06:26:26.206Z,0.00
2023-02-18T06:27:26.207Z,0.00
2023-02-18T06:28:26.149Z,0.00
2023-02-18T06:29:26.147Z,0.00
2023-02-18T06:30:26.152Z,0.00
2023-02-18T06:31:26.188Z,0.00
2023-02-18T06:32:26.240Z,0.00
2023-02-18T06:33:26.097Z,0.00
2023-02-18T06:34:26.084Z,0.00
2023-02-18T06:35:26.070Z,0.00
2023-02-18T06:36:26.056Z,0.00
2023-02-18T06:37:26.056Z,0.00
2023-02-18T06:38:26.062Z,0.00
2023-02-18T06:39:26.048Z,0.00
2023-02-18T06:40:26.000Z,0.00
2023-02-18T06:41:25.997Z,0.00
2023-02-18T06:42:33.493Z,0.00
2023-02-18T06:43:25.978Z,0.00
2023-02-18T06:44:26.645Z,0.00
2023-02-18T06:45:25.940Z,0.00
2023-02-18T06:46:25.974Z,0.00
2023-02-18T06:47:25.903Z,0.00
2023-02-18T06:48:25.945Z,0.00
2023-02-18T06:49:25.878Z,0.00
2023-02-18T06:50:25.893Z,0.00
2023-02-18T06:51:25.839Z,0.00
2023-02-18T06:52:25.900Z,0.00
2023-02-18T06:53:25.846Z,0.00
2023-02-18T06:54:25.806Z,0.00
2023-02-18T06:55:25.806Z,5.62
2023-02-18T06:56:25.814Z,5.62
2023-02-18T06:57:25.971Z,0.00
2023-02-18T06:58:25.798Z,5.62
2023-02-18T06:59:25.826Z,5.62
2023-02-18T07:00:25.727Z,5.62
2023-02-18T07:01:25.716Z,5.62
2023-02-18T07:02:25.687Z,5.62
2023-02-18T07:03:27.060Z,5.62
2023-02-18T07:04:25.694Z,5.62
2023-02-18T07:05:25.666Z,5.62
2023-02-18T07:06:25.664Z,11.25
2023-02-18T07:07:25.727Z,11.25
2023-02-18T07:08:25.610Z,11.25
2023-02-18T07:09:25.583Z,11.25
2023-02-18T07:10:25.590Z,11.25
2023-02-18T07:11:25.588Z,11.25
2023-02-18T07:12:25.614Z,11.25
2023-02-18T07:13:25.594Z,11.25
2023-02-18T07:14:25.671Z,11.25
2023-02-18T07:15:25.540Z,16.88
2023-02-18T07:16:25.570Z,11.25
2023-02-18T07:17:25.490Z,16.88
2023-02-18T07:18:25.484Z,11.25
2023-02-18T07:19:25.478Z,16.88
2023-02-18T07:20:25.490Z,16.88
2023-02-18T07:21:25.637Z,22.50
2023-02-18T07:22:25.443Z,22.50
2023-02-18T07:23:25.399Z,22.50
2023-02-18T07:24:25.395Z,22.50
2023-02-18T07:25:25.394Z,22.50
2023-02-18T07:26:25.361Z,22.50
2023-02-18T07:27:25.355Z,22.50
2023-02-18T07:28:25.370Z,22.50
2023-02-18T07:29:25.326Z,22.50
2023-02-18T07:30:25.368Z,22.50
2023-02-18T07:31:25.376Z,16.88
2023-02-18T07:32:25.334Z,22.50
2023-02-18T07:33:25.289Z,22.50
2023-02-18T07:34:25.258Z,22.50
2023-02-18T07:35:25.245Z,16.88
2023-02-18T07:36:25.237Z,16.88
2023-02-18T07:37:25.252Z,22.50
2023-02-18T07:38:25.205Z,22.50
2023-02-18T07:39:25.182Z,22.50
2023-02-18T07:40:25.217Z,22.50
2023-02-18T07:41:25.164Z,22.50
2023-02-18T07:42:25.193Z,22.50
2023-02-18T07:43:25.168Z,22.50
2023-02-18T07:44:25.138Z,33.75
2023-02-18T07:45:25.177Z,33.75
2023-02-18T07:46:25.127Z,28.12
2023-02-18T07:47:25.099Z,33.75
2023-02-18T07:48:25.048Z,39.38
2023-02-18T07:49:25.050Z,39.38
2023-02-18T07:50:25.056Z,39.38
2023-02-18T07:51:25.005Z,33.75
2023-02-18T07:52:25.005Z,39.38
2023-02-18T07:53:24.997Z,39.38
2023-02-18T07:54:24.990Z,45.00
2023-02-18T07:55:24.972Z,45.00
2023-02-18T07:56:24.918Z,39.38
2023-02-18T07:57:24.952Z,45.00
2023-02-18T07:58:24.922Z,45.00
2023-02-18T07:59:24.889Z,28.12
2023-02-18T08:00:24.886Z,33.75
2023-02-18T08:01:24.857Z,39.38
2023-02-18T08:02:24.956Z,33.75
2023-02-18T08:03:24.840Z,33.75
2023-02-18T08:04:24.906Z,33.75
2023-02-18T08:05:24.817Z,28.12
2023-02-18T08:06:24.785Z,39.38
2023-02-18T08:07:24.775Z,39.38
2023-02-18T08:08:24.821Z,45.00
2023-02-18T08:09:24.744Z,56.25
2023-02-18T08:10:24.745Z,39.38
2023-02-18T08:11:24.765Z,45.00
2023-02-18T08:12:24.721Z,56.25
2023-02-18T08:13:24.698Z,61.88
2023-02-18T08:14:24.720Z,67.50
2023-02-18T08:15:24.674Z,78.75
2023-02-18T08:16:24.729Z,90.00
2023-02-18T08:17:24.650Z,84.38
2023-02-18T08:18:24.622Z,84.38
2023-02-18T08:19:24.634Z,78.75
2023-02-18T08:20:24.634Z,101.25
2023-02-18T08:21:24.583Z,123.75
2023-02-18T08:22:24.608Z,118.12
2023-02-18T08:23:24.574Z,135.00
2023-02-18T08:24:24.547Z,112.50
2023-02-18T08:25:29.709Z,95.62
2023-02-18T08:26:25.551Z,106.88
2023-02-18T08:27:24.514Z,106.88
2023-02-18T08:28:24.502Z,90.00
2023-02-18T08:29:24.463Z,78.75
2023-02-18T08:30:24.500Z,78.75
2023-02-18T08:31:24.610Z,73.12
2023-02-18T08:32:24.436Z,45.00
2023-02-18T08:33:24.446Z,39.38
2023-02-18T08:34:24.413Z,56.25
2023-02-18T08:35:24.399Z,50.62
2023-02-18T08:36:24.408Z,56.25
2023-02-18T08:37:24.368Z,50.62
2023-02-18T08:38:24.378Z,45.00
2023-02-18T08:39:24.369Z,56.25
2023-02-18T08:40:24.319Z,50.62
2023-02-18T08:41:24.324Z,56.25
2023-02-18T08:42:24.318Z,50.62
2023-02-18T08:43:24.294Z,50.62
2023-02-18T08:44:24.311Z,45.00
2023-02-18T08:45:24.245Z,45.00
2023-02-18T08:46:25.174Z,45.00
2023-02-18T08:48:13.768Z,39.38
2023-02-18T08:48:25.221Z,45.00
2023-02-18T08:49:24.333Z,45.00
2023-02-18T08:50:24.321Z,45.00
2023-02-18T08:51:24.194Z,50.62
2023-02-18T08:52:24.177Z,56.25
2023-02-18T08:53:24.132Z,56.25
2023-02-18T08:54:24.172Z,61.88
2023-02-18T08:55:24.130Z,61.88
2023-02-18T08:56:24.132Z,56.25
2023-02-18T08:57:24.071Z,61.88
2023-02-18T08:58:24.177Z,45.00
2023-02-18T08:59:25.033Z,61.88
2023-02-18T09:00:24.182Z,61.88
2023-02-18T09:01:24.441Z,50.62
2023-02-18T09:02:24.127Z,56.25
2023-02-18T09:03:24.170Z,39.38
2023-02-18T09:04:24.376Z,39.38
2023-02-18T09:05:24.174Z,33.75
2023-02-18T09:06:24.025Z,33.75
2023-02-18T09:07:24.012Z,28.12
2023-02-18T09:08:24.102Z,39.38
2023-02-18T09:09:24.017Z,33.75
2023-02-18T09:10:24.003Z,33.75
2023-02-18T09:11:23.953Z,33.75
2023-02-18T09:12:23.909Z,33.75
2023-02-18T09:13:23.909Z,28.12
2023-02-18T09:14:24.288Z,33.75
2023-02-18T09:15:24.540Z,33.75
2023-02-18T09:16:26.111Z,33.75
2023-02-18T09:17:24.084Z,33.75
2023-02-18T09:18:23.786Z,28.12
2023-02-18T09:19:23.787Z,33.75
2023-02-18T09:20:23.883Z,39.38
2023-02-18T09:21:23.758Z,33.75
2023-02-18T09:22:23.748Z,39.38
2023-02-18T09:23:23.757Z,39.38
2023-02-18T09:24:23.726Z,39.38
2023-02-18T09:25:23.702Z,39.38
2023-02-18T09:26:23.690Z,45.00
2023-02-18T09:27:23.679Z,45.00
2023-02-18T09:28:23.697Z,33.75
2023-02-18T09:29:23.672Z,33.75
2023-02-18T09:30:23.759Z,33.75
2023-02-18T09:31:23.689Z,33.75
2023-02-18T09:32:34.290Z,39.38
2023-02-18T09:33:24.584Z,45.00
2023-02-18T09:34:23.565Z,50.62
2023-02-18T09:35:23.570Z,50.62
2023-02-18T09:36:23.538Z,50.62
2023-02-18T09:37:23.536Z,50.62
2023-02-18T09:38:23.594Z,45.00
2023-02-18T09:39:23.544Z,39.38
2023-02-18T09:40:23.497Z,39.38
2023-02-18T09:41:23.474Z,39.38
2023-02-18T09:42:23.447Z,39.38
2023-02-18T09:43:23.595Z,39.38
2023-02-18T09:44:23.443Z,45.00
2023-02-18T09:45:23.420Z,45.00
2023-02-18T09:46:23.428Z,45.00
2023-02-18T09:47:23.489Z,45.00
2023-02-18T09:48:25.215Z,67.50
2023-02-18T09:49:23.362Z,78.75
2023-02-18T09:50:23.342Z,84.38
2023-02-18T09:51:23.464Z,78.75
2023-02-18T09:52:23.407Z,78.75
2023-02-18T09:53:23.364Z,90.00
2023-02-18T09:54:23.293Z,73.12
2023-02-18T09:55:23.273Z,61.88
2023-02-18T09:56:23.242Z,67.50
2023-02-18T09:57:23.265Z,78.75
2023-02-18T09:58:23.258Z,67.50
2023-02-18T09:59:23.203Z,73.12
2023-02-18T10:00:23.202Z,78.75
2023-02-18T10:01:23.209Z,90.00
2023-02-18T10:02:23.191Z,112.50
2023-02-18T10:03:23.192Z,95.62
2023-02-18T10:04:23.147Z,78.75
2023-02-18T10:05:23.125Z,73.12
2023-02-18T10:06:23.126Z,78.75
2023-02-18T10:07:23.111Z,78.75
2023-02-18T10:08:23.096Z,84.38
2023-02-18T10:09:23.094Z,90.00
2023-02-18T10:10:23.086Z,78.75
2023-02-18T10:11:23.058Z,78.75
2023-02-18T10:12:23.038Z,67.50
2023-02-18T10:13:23.035Z,78.75
2023-02-18T10:14:23.038Z,73.12
2023-02-18T10:15:23.009Z,73.12
2023-02-18T10:16:23.073Z,73.12
2023-02-18T10:17:22.988Z,78.75
2023-02-18T10:18:22.960Z,73.12
2023-02-18T10:19:22.941Z,67.50
2023-02-18T10:20:22.968Z,67.50
2023-02-18T10:21:22.977Z,78.75
2023-02-18T10:22:23.079Z,78.75
2023-02-18T10:23:22.931Z,73.12
2023-02-18T10:24:22.890Z,78.75
2023-02-18T10:25:22.890Z,73.12
2023-02-18T10:26:22.988Z,84.38
2023-02-18T10:27:22.938Z,78.75
2023-02-18T10:28:22.827Z,73.12
2023-02-18T10:29:22.887Z,101.25
2023-02-18T10:30:22.878Z,95.62
2023-02-18T10:31:22.887Z,101.25
2023-02-18T10:32:22.821Z,95.62
2023-02-18T10:33:22.762Z,95.62
2023-02-18T10:34:22.782Z,95.62
2023-02-18T10:35:22.734Z,84.38
2023-02-18T10:36:22.740Z,78.75
2023-02-18T10:37:22.785Z,73.12
2023-02-18T10:38:22.775Z,84.38
2023-02-18T10:39:22.759Z,95.62
2023-02-18T10:40:22.642Z,95.62
2023-02-18T10:41:22.648Z,95.62
2023-02-18T10:42:22.602Z,78.75
2023-02-18T10:43:22.609Z,78.75
2023-02-18T10:44:22.610Z,73.12
2023-02-18T10:45:22.579Z,78.75
2023-02-18T10:46:22.585Z,67.50
2023-02-18T10:47:23.648Z,67.50
2023-02-18T10:48:22.676Z,78.75
2023-02-18T10:49:22.569Z,78.75
2023-02-18T10:50:22.511Z,67.50
2023-02-18T10:51:22.489Z,73.12
2023-02-18T10:52:22.502Z,84.38
2023-02-18T10:53:22.452Z,67.50
2023-02-18T10:54:22.550Z,67.50
2023-02-18T10:55:22.461Z,61.88
2023-02-18T10:56:22.760Z,61.88
2023-02-18T10:57:22.539Z,56.25
2023-02-18T10:58:22.392Z,45.00
2023-02-18T10:59:22.603Z,50.62
2023-02-18T11:00:22.384Z,56.25
2023-02-18T11:01:22.857Z,61.88
2023-02-18T11:02:22.446Z,61.88
2023-02-18T11:03:22.383Z,61.88
2023-02-18T11:04:22.375Z,67.50
2023-02-18T11:05:22.465Z,78.75
2023-02-18T11:06:22.340Z,95.62
2023-02-18T11:07:22.367Z,78.75
2023-02-18T11:08:22.263Z,78.75
2023-02-18T11:09:22.239Z,67.50
2023-02-18T11:10:22.217Z,67.50
2023-02-18T11:11:22.208Z,61.88
2023-02-18T11:12:22.252Z,56.25
2023-02-18T11:13:22.216Z,67.50
2023-02-18T11:14:22.165Z,67.50
2023-02-18T11:15:22.236Z,61.88
2023-02-18T11:16:22.200Z,73.12
2023-02-18T11:17:22.232Z,101.25
2023-02-18T11:18:22.114Z,101.25
2023-02-18T11:19:22.131Z,90.00
2023-02-18T11:20:22.132Z,106.88
2023-02-18T11:21:22.144Z,112.50
2023-02-18T11:22:22.140Z,95.62
2023-02-18T11:23:22.060Z,90.00
2023-02-18T11:24:22.061Z,90.00
2023-02-18T11:25:22.043Z,95.62
2023-02-18T11:26:22.100Z,112.50
2023-02-18T11:27:22.064Z,163.12
2023-02-18T11:28:21.965Z,168.75
2023-02-18T11:29:21.960Z,151.88
2023-02-18T11:30:21.976Z,101.25
2023-02-18T11:31:22.032Z,90.00
2023-02-18T11:32:22.000Z,90.00
2023-02-18T11:33:21.963Z,73.12
2023-02-18T11:34:21.896Z,95.62
2023-02-18T11:35:21.881Z,112.50
2023-02-18T11:36:21.877Z,129.38
2023-02-18T11:37:21.865Z,112.50
2023-02-18T11:38:21.810Z,95.62
2023-02-18T11:39:21.886Z,84.38
2023-02-18T11:40:21.809Z,73.12
2023-02-18T11:41:21.789Z,78.75
2023-02-18T11:42:21.899Z,56.25
2023-02-18T11:43:21.765Z,67.50
2023-02-18T11:44:21.802Z,61.88
2023-02-18T11:45:21.758Z,67.50
2023-02-18T11:46:21.766Z,56.25
2023-02-18T11:47:21.735Z,84.38
2023-02-18T11:48:21.704Z,73.12
2023-02-18T11:49:21.726Z,61.88
2023-02-18T11:50:21.828Z,73.12
2023-02-18T11:51:21.668Z,95.62
2023-02-18T11:52:21.635Z,101.25
2023-02-18T11:53:21.609Z,101.25
2023-02-18T11:54:21.638Z,95.62
2023-02-18T11:55:21.611Z,112.50
2023-02-18T11:56:21.587Z,101.25
2023-02-18T11:57:21.607Z,101.25
2023-02-18T11:58:21.561Z,101.25
2023-02-18T11:59:21.552Z,101.25
2023-02-18T12:00:21.542Z,101.25
2023-02-18T12:01:21.539Z,101.25
2023-02-18T12:02:21.513Z,101.25
2023-02-18T12:03:21.519Z,118.12
2023-02-18T12:04:21.471Z,95.62
2023-02-18T12:05:21.529Z,90.00
2023-02-18T12:06:21.492Z,90.00
2023-02-18T12:07:21.453Z,95.62
2023-02-18T12:08:21.454Z,101.25
2023-02-18T12:09:21.413Z,106.88
2023-02-18T12:10:21.419Z,101.25
2023-02-18T12:11:21.458Z,84.38
2023-02-18T12:12:21.379Z,84.38
2023-02-18T12:13:21.364Z,90.00
2023-02-18T12:14:21.338Z,90.00
2023-02-18T12:15:21.326Z,90.00
2023-02-18T12:16:21.349Z,78.75
2023-02-18T12:17:21.336Z,73.12
2023-02-18T12:18:21.312Z,56.25
2023-02-18T12:19:21.273Z,45.00
2023-02-18T12:20:21.254Z,56.25
2023-02-18T12:21:21.259Z,61.88
2023-02-18T12:22:21.222Z,56.25
2023-02-18T12:23:21.273Z,61.88
2023-02-18T12:24:21.302Z,73.12
2023-02-18T12:25:21.213Z,78.75
2023-02-18T12:26:21.229Z,95.62
2023-02-18T12:27:21.177Z,84.38
2023-02-18T12:28:21.147Z,90.00
2023-02-18T12:29:21.134Z,95.62
2023-02-18T12:30:21.184Z,118.12
2023-02-18T12:31:21.198Z,123.75
2023-02-18T12:32:21.114Z,101.25
2023-02-18T12:33:21.086Z,101.25
2023-02-18T12:34:21.087Z,90.00
2023-02-18T12:35:21.169Z,95.62
2023-02-18T12:36:21.048Z,84.38
2023-02-18T12:37:21.064Z,90.00
2023-02-18T12:38:21.081Z,73.12
2023-02-18T12:39:21.035Z,73.12
2023-02-18T12:40:21.035Z,78.75
2023-02-18T12:41:21.008Z,73.12
2023-02-18T12:42:20.988Z,73.12
2023-02-18T12:43:20.959Z,73.12
2023-02-18T12:44:20.950Z,90.00
2023-02-18T12:45:20.937Z,78.75
2023-02-18T12:46:20.921Z,84.38
2023-02-18T12:47:20.910Z,90.00
2023-02-18T12:48:20.889Z,84.38
2023-02-18T12:49:20.888Z,78.75
2023-02-18T12:50:20.901Z,73.12
2023-02-18T12:51:20.849Z,73.12
2023-02-18T12:52:20.830Z,67.50
2023-02-18T12:53:21.514Z,73.12
2023-02-18T12:54:20.799Z,61.88
2023-02-18T12:55:20.791Z,56.25
2023-02-18T12:56:20.771Z,78.75
2023-02-18T12:57:20.774Z,61.88
2023-02-18T12:58:20.764Z,73.12
2023-02-18T12:59:20.764Z,67.50
2023-02-18T13:00:20.746Z,67.50
2023-02-18T13:01:20.740Z,84.38
2023-02-18T13:02:20.675Z,73.12
2023-02-18T13:03:20.751Z,67.50
2023-02-18T13:04:20.713Z,61.88
2023-02-18T13:05:20.681Z,61.88